Time;durP1;ratioP1;P1;durP2;ratioP2;P2;SDS_P1;SDS_P2;PMS_P1;PMS_P2;Temp;Humidity;BMP_temperature;BMP_pressure;BME280_temperature;BME280_humidity;BME280_pressure;Samples;Min_cycle;Max_cycle;Signal;HPM_P1;HPM_P2
2021/05/10 00:00:57;;;;;;;4.87;0.60;;;25.50;27.40;;;;;;4374387;32;20233;-40
2021/05/10 00:03:23;;;;;;;12.20;0.90;;;25.50;27.30;;;;;;4386421;32;20110;-41
2021/05/10 00:05:50;;;;;;;4.75;0.60;;;25.50;27.40;;;;;;4386224;32;20597;-39
2021/05/10 00:08:17;;;;;;;7.47;1.20;;;25.50;27.50;;;;;;4386415;32;20077;-41
2021/05/10 00:10:43;;;;;;;7.25;0.73;;;25.50;27.50;;;;;;4386386;32;20103;-40
2021/05/10 00:13:11;;;;;;;10.43;0.50;;;25.50;27.50;;;;;;4386211;32;20154;-39
2021/05/10 00:15:38;;;;;;;5.70;0.90;;;25.50;27.50;;;;;;4386296;32;20647;-37
2021/05/10 00:18:05;;;;;;;8.63;0.65;;;25.50;27.50;;;;;;4386212;32;20049;-37
2021/05/10 00:20:37;;;;;;;8.82;0.73;;;25.50;27.50;;;;;;4386803;32;20525;-39
2021/05/10 00:23:03;;;;;;;10.45;1.17;;;25.50;27.50;;;;;;4386577;32;20054;-39
2021/05/10 00:25:30;;;;;;;5.30;0.60;;;25.50;27.50;;;;;;4375724;32;20145;-40
2021/05/10 00:27:57;;;;;;;8.48;0.60;;;25.50;27.40;;;;;;4373833;32;20073;-39
2021/05/10 00:30:24;;;;;;;4.95;0.93;;;25.50;27.40;;;;;;4373531;32;20057;-40
2021/05/10 00:32:50;;;;;;;6.35;0.62;;;25.50;27.60;;;;;;4373800;32;20065;-38
2021/05/10 00:35:18;;;;;;;7.50;0.70;;;25.50;27.40;;;;;;4373806;32;20043;-39
2021/05/10 00:37:44;;;;;;;6.20;0.82;;;25.40;27.40;;;;;;4373253;32;20086;-40
2021/05/10 00:40:13;;;;;;;10.25;1.15;;;25.50;27.50;;;;;;4373330;32;20066;-39
2021/05/10 00:42:39;;;;;;;8.48;0.90;;;25.40;27.50;;;;;;4373348;32;20049;-38
2021/05/10 00:45:07;;;;;;;12.85;1.45;;;25.40;27.40;;;;;;4373617;32;20135;-38
2021/05/10 00:47:34;;;;;;;7.90;1.48;;;25.50;27.50;;;;;;4373425;32;20058;-39
2021/05/10 00:50:01;;;;;;;15.40;0.80;;;25.50;27.50;;;;;;4373057;32;20086;-41
2021/05/10 00:52:27;;;;;;;3.70;0.55;;;25.50;27.50;;;;;;4372975;32;20162;-39
2021/05/10 00:54:54;;;;;;;4.78;0.93;;;25.50;27.60;;;;;;4373139;32;20054;-41
2021/05/10 00:57:21;;;;;;;9.32;0.70;;;25.60;27.50;;;;;;4371970;32;20086;-39
2021/05/10 00:59:49;;;;;;;6.47;0.77;;;25.60;27.50;;;;;;4373437;32;20065;-40
2021/05/10 01:02:16;;;;;;;4.60;0.70;;;25.60;27.60;;;;;;4359667;32;20124;-41
2021/05/10 01:04:43;;;;;;;6.95;0.60;;;25.50;27.50;;;;;;4373079;32;20507;-40
2021/05/10 01:07:10;;;;;;;3.08;0.70;;;25.50;27.50;;;;;;4371661;32;20051;-38
2021/05/10 01:09:36;;;;;;;6.32;0.70;;;25.60;27.50;;;;;;4342867;32;20169;-41
2021/05/10 01:12:03;;;;;;;5.60;0.70;;;25.60;27.60;;;;;;4356135;32;20139;-38
2021/05/10 01:14:30;;;;;;;9.13;1.77;;;25.60;27.60;;;;;;4355505;32;20082;-39
2021/05/10 01:16:56;;;;;;;2.92;0.60;;;25.70;27.50;;;;;;4343253;32;20673;-40
2021/05/10 01:19:23;;;;;;;7.57;0.95;;;25.70;27.50;;;;;;4343332;32;20511;-39
2021/05/10 01:21:50;;;;;;;4.12;1.10;;;25.70;27.60;;;;;;4331049;32;20124;-38
2021/05/10 01:24:17;;;;;;;9.73;1.00;;;25.70;27.50;;;;;;4330549;32;20089;-40
2021/05/10 01:26:43;;;;;;;7.32;0.95;;;25.70;27.40;;;;;;4343353;32;20094;-41
2021/05/10 01:29:10;;;;;;;7.68;0.62;;;25.70;27.50;;;;;;4331291;32;20070;-40
2021/05/10 01:31:36;;;;;;;10.65;0.70;;;25.70;27.50;;;;;;4331163;32;20062;-40
2021/05/10 01:34:03;;;;;;;9.02;1.42;;;25.80;27.50;;;;;;4343109;32;20066;-41
2021/05/10 01:36:29;;;;;;;8.98;1.08;;;25.80;27.50;;;;;;4355732;32;20063;-39
2021/05/10 01:38:56;;;;;;;3.42;0.70;;;25.80;27.60;;;;;;4355698;32;20069;-39
2021/05/10 01:41:22;;;;;;;4.00;0.80;;;25.90;27.50;;;;;;4369409;32;20558;-40
2021/05/10 01:43:48;;;;;;;10.43;1.15;;;26.00;27.50;;;;;;4372567;32;20066;-40
2021/05/10 01:46:15;;;;;;;3.42;0.80;;;26.00;27.40;;;;;;4372962;32;20082;-38
2021/05/10 01:48:41;;;;;;;3.75;1.00;;;26.10;27.40;;;;;;4374574;32;20133;-41
2021/05/10 01:51:08;;;;;;;6.12;1.30;;;26.10;27.40;;;;;;4375812;32;20064;-40
2021/05/10 01:53:34;;;;;;;13.07;1.02;;;26.20;27.50;;;;;;4376312;32;20062;-40
2021/05/10 01:56:01;;;;;;;8.55;1.10;;;26.30;27.40;;;;;;4375707;32;20096;-42
2021/05/10 01:58:27;;;;;;;7.43;1.20;;;26.30;27.50;;;;;;4375890;32;20162;-41
2021/05/10 02:00:54;;;;;;;4.43;1.05;;;26.30;27.50;;;;;;4375729;32;20062;-41
2021/05/10 02:03:21;;;;;;;9.45;1.85;;;26.40;27.50;;;;;;4375911;32;20090;-40
2021/05/10 02:05:51;;;;;;;7.93;1.25;;;26.50;27.50;;;;;;4374411;32;20169;-39
2021/05/10 02:08:18;;;;;;;9.32;1.23;;;26.60;27.50;;;;;;4375984;32;20101;-40
2021/05/10 02:10:51;;;;;;;4.10;0.73;;;26.60;28.10;;;;;;4374220;32;20064;-40
2021/05/10 02:13:22;;;;;;;6.62;0.80;;;26.70;27.60;;;;;;4375799;32;20051;-41
2021/05/10 02:15:51;;;;;;;9.40;1.17;;;26.70;27.40;;;;;;4375543;32;20073;-39
2021/05/10 02:18:20;;;;;;;4.25;0.70;;;26.80;27.60;;;;;;4375494;32;20532;-42
2021/05/10 02:20:47;;;;;;;7.18;1.27;;;26.80;27.40;;;;;;4375538;32;20611;-41
2021/05/10 02:23:16;;;;;;;5.72;0.82;;;26.90;27.40;;;;;;4375540;32;20094;-40
2021/05/10 02:26:03;;;;;;;6.03;1.00;;;26.90;27.50;;;;;;4375622;32;20171;-40
2021/05/10 02:28:31;;;;;;;4.65;1.35;;;27.00;27.50;;;;;;4373545;32;20074;-41
2021/05/10 02:30:59;;;;;;;6.03;1.55;;;27.00;27.60;;;;;;4375689;32;20170;-41
2021/05/10 02:33:33;;;;;;;4.90;0.70;;;27.10;27.50;;;;;;4374105;32;20141;-40
2021/05/10 02:36:00;;;;;;;3.72;0.93;;;27.10;27.40;;;;;;4374225;32;20062;-40
2021/05/10 02:38:27;;;;;;;6.43;0.80;;;27.20;27.30;;;;;;4375358;32;20054;-41
2021/05/10 02:40:53;;;;;;;3.80;0.57;;;27.20;27.40;;;;;;4375497;32;20141;-42
2021/05/10 02:43:24;;;;;;;3.92;0.80;;;27.30;27.30;;;;;;4373216;32;20066;-41
2021/05/10 02:45:51;;;;;;;6.55;0.80;;;27.40;27.40;;;;;;4375158;32;20522;-41
2021/05/10 02:48:18;;;;;;;7.00;0.88;;;27.50;27.40;;;;;;4373497;32;20074;-41
2021/05/10 02:50:45;;;;;;;4.03;0.60;;;27.60;27.30;;;;;;4373356;32;20514;-41
2021/05/10 02:53:11;;;;;;;3.22;1.12;;;27.70;27.30;;;;;;4375296;32;20488;-41
2021/05/10 02:55:38;;;;;;;5.68;0.70;;;27.80;27.30;;;;;;4375015;32;20070;-42
2021/05/10 02:58:04;;;;;;;3.75;0.82;;;27.80;27.20;;;;;;4374611;32;20086;-42
2021/05/10 03:00:31;;;;;;;7.85;0.80;;;28.00;27.30;;;;;;4374275;32;20050;-42
2021/05/10 03:02:57;;;;;;;7.70;0.70;;;28.10;27.10;;;;;;4374772;32;20081;-42
2021/05/10 03:05:25;;;;;;;8.00;1.25;;;28.10;27.00;;;;;;4374772;32;20059;-42
2021/05/10 03:07:52;;;;;;;8.05;1.02;;;28.20;27.10;;;;;;4374913;32;20084;-41
2021/05/10 03:10:20;;;;;;;5.22;0.70;;;28.30;26.90;;;;;;4375094;32;20073;-42
2021/05/10 03:12:47;;;;;;;9.63;0.80;;;28.30;27.10;;;;;;4374909;32;20164;-42
2021/05/10 03:15:16;;;;;;;5.35;0.60;;;28.40;26.90;;;;;;4374936;32;20214;-42
2021/05/10 03:17:42;;;;;;;4.22;1.00;;;28.50;26.80;;;;;;4375045;32;20073;-41
2021/05/10 03:20:12;;;;;;;3.35;0.85;;;28.60;27.10;;;;;;4373436;32;20057;-42
2021/05/10 03:22:39;;;;;;;1.67;0.60;;;28.80;26.80;;;;;;4373402;32;20077;-41
2021/05/10 03:25:06;;;;;;;1.20;0.60;;;28.90;26.50;;;;;;4374864;32;20093;-41
2021/05/10 03:27:42;;;;;;;2.47;1.02;;;29.00;26.50;;;;;;4374415;32;20527;-42
2021/05/10 03:30:17;;;;;;;1.98;0.95;;;29.20;26.40;;;;;;4374278;32;20157;-42
2021/05/10 03:32:44;;;;;;;3.30;0.60;;;29.40;26.40;;;;;;4373076;32;20121;-40
2021/05/10 03:35:11;;;;;;;2.90;0.62;;;29.50;26.20;;;;;;4374505;32;20179;-42
2021/05/10 03:37:38;;;;;;;2.85;0.55;;;29.70;26.00;;;;;;4372997;32;20498;-41
2021/05/10 03:40:07;;;;;;;2.97;0.68;;;29.80;26.00;;;;;;4374466;32;20138;-42
2021/05/10 03:42:34;;;;;;;5.95;0.70;;;30.00;26.00;;;;;;4374501;32;20073;-42
2021/05/10 03:45:00;;;;;;;3.75;0.68;;;30.10;25.80;;;;;;4374465;32;20065;-43
2021/05/10 03:47:38;;;;;;;7.30;0.75;;;30.20;26.10;;;;;;4382162;32;20477;-42
2021/05/10 03:50:20;;;;;;;1.98;0.82;;;30.40;26.00;;;;;;4389105;32;20081;-40
2021/05/10 03:52:47;;;;;;;2.03;0.80;;;30.50;25.60;;;;;;4389339;32;20536;-37
2021/05/10 03:55:15;;;;;;;3.35;0.90;;;30.60;25.40;;;;;;4389272;32;20066;-42
2021/05/10 03:57:42;;;;;;;4.45;0.75;;;30.70;25.90;;;;;;4389468;32;20062;-41
2021/05/10 04:00:10;;;;;;;3.17;0.60;;;30.90;25.70;;;;;;4386116;32;20081;-42
2021/05/10 04:02:37;;;;;;;4.72;0.70;;;31.10;25.40;;;;;;4386619;32;20471;-42
2021/05/10 04:15:52;;;;;;;3.37;0.60;;;31.60;24.80;;;;;;4371300;32;20183;-43
2021/05/10 04:18:20;;;;;;;5.40;0.60;;;31.70;24.80;;;;;;4371098;32;20694;-42
2021/05/10 04:20:48;;;;;;;4.57;0.70;;;31.80;24.80;;;;;;4371640;32;20081;-42
2021/05/10 04:23:17;;;;;;;2.62;0.55;;;31.80;25.00;;;;;;4371690;32;20145;-43
2021/05/10 04:25:47;;;;;;;3.90;0.60;;;31.90;25.30;;;;;;4371480;32;20643;-42
2021/05/10 04:28:14;;;;;;;2.55;0.98;;;32.00;24.80;;;;;;4371062;32;20522;-42
2021/05/10 04:30:41;;;;;;;5.10;1.42;;;32.10;24.70;;;;;;4363175;32;20098;-44
2021/05/10 04:33:08;;;;;;;2.42;0.60;;;32.30;24.70;;;;;;4385993;32;20200;-41
2021/05/10 04:35:36;;;;;;;4.32;0.73;;;32.30;24.50;;;;;;4386930;32;20479;-42
2021/05/10 04:38:07;;;;;;;3.60;0.70;;;32.40;24.90;;;;;;4388860;32;20090;-43
2021/05/10 04:42:28;;;;;;;1.50;0.73;;;32.50;24.80;;;;;;3854003;37;20070;-39
2021/05/10 04:44:55;;;;;;;5.47;0.70;;;32.80;24.50;;;;;;4416675;32;20477;-37
2021/05/10 04:47:21;;;;;;;4.93;0.68;;;32.80;24.60;;;;;;4406734;32;20085;-38
2021/05/10 04:49:48;;;;;;;3.62;0.85;;;32.90;24.20;;;;;;4401366;32;20092;-39
2021/05/10 04:52:15;;;;;;;2.65;0.70;;;33.00;24.10;;;;;;4401157;32;20154;-38
2021/05/10 04:54:41;;;;;;;5.70;0.60;;;33.10;24.50;;;;;;4399640;32;20108;-38
2021/05/10 04:57:07;;;;;;;4.32;0.60;;;33.10;24.20;;;;;;4401025;32;20573;-39
2021/05/10 04:59:34;;;;;;;3.30;0.60;;;33.20;24.10;;;;;;4400944;32;20061;-39
2021/05/10 05:02:00;;;;;;;7.57;0.80;;;33.20;24.10;;;;;;4400716;32;20069;-38
2021/05/10 05:04:27;;;;;;;1.50;0.90;;;33.30;24.10;;;;;;4400563;32;20072;-38
2021/05/10 05:06:53;;;;;;;3.15;0.70;;;33.40;24.10;;;;;;4400584;32;20141;-38
2021/05/10 05:09:19;;;;;;;1.77;0.70;;;33.60;24.50;;;;;;4401456;32;20066;-39
2021/05/10 05:11:46;;;;;;;6.75;0.90;;;33.90;24.50;;;;;;4401121;32;20070;-38
2021/05/10 05:14:12;;;;;;;5.25;1.25;;;34.00;23.80;;;;;;4400601;32;20184;-39
2021/05/10 05:16:39;;;;;;;2.83;0.60;;;34.10;23.70;;;;;;4400930;32;20137;-38
2021/05/10 05:19:05;;;;;;;1.75;0.43;;;34.30;23.40;;;;;;4400518;32;20173;-39
2021/05/10 05:21:32;;;;;;;4.55;0.85;;;34.50;23.40;;;;;;4400332;32;20160;-38
2021/05/10 05:23:58;;;;;;;2.78;0.50;;;34.70;23.00;;;;;;4400487;32;20138;-38
2021/05/10 05:26:24;;;;;;;7.40;0.73;;;34.90;23.00;;;;;;4393622;32;20066;-39
2021/05/10 05:28:51;;;;;;;3.53;0.73;;;35.00;22.80;;;;;;4385144;32;20073;-39
2021/05/10 05:31:17;;;;;;;1.00;0.60;;;35.10;23.00;;;;;;4386066;32;20065;-38
2021/05/10 05:33:44;;;;;;;1.20;0.57;;;35.30;23.40;;;;;;4397435;32;20140;-38
2021/05/10 05:36:10;;;;;;;1.20;0.50;;;35.50;22.90;;;;;;4398105;32;20079;-38
2021/05/10 05:38:37;;;;;;;3.17;0.80;;;35.70;22.70;;;;;;4397636;32;20076;-40
2021/05/10 05:41:03;;;;;;;1.75;0.70;;;36.00;23.00;;;;;;4384806;32;20097;-39
2021/05/10 05:43:30;;;;;;;3.37;0.55;;;36.20;22.70;;;;;;4385353;32;20092;-40
2021/05/10 05:45:56;;;;;;;5.47;0.60;;;36.40;22.60;;;;;;4397848;32;20084;-39
2021/05/10 05:48:23;;;;;;;4.12;0.60;;;36.70;22.40;;;;;;4383594;32;20144;-37
2021/05/10 05:50:49;;;;;;;8.27;1.08;;;37.00;22.10;;;;;;4382792;32;20599;-40
2021/05/10 05:53:16;;;;;;;6.50;0.60;;;37.30;21.90;;;;;;4374911;32;20205;-39
2021/05/10 05:55:42;;;;;;;2.87;0.75;;;37.60;21.80;;;;;;4372477;32;20102;-39
2021/05/10 05:58:09;;;;;;;3.60;0.62;;;37.90;21.60;;;;;;4372185;32;20558;-38
2021/05/10 06:00:35;;;;;;;5.93;0.70;;;38.20;21.60;;;;;;4370229;32;20162;-39
2021/05/10 06:03:02;;;;;;;2.08;0.70;;;38.40;21.40;;;;;;4374560;32;20620;-39
2021/05/10 06:05:28;;;;;;;1.62;0.60;;;38.70;21.30;;;;;;4374500;32;20070;-39
2021/05/10 06:07:54;;;;;;;2.33;0.60;;;38.80;21.30;;;;;;4374883;32;20078;-38
2021/05/10 06:10:24;;;;;;;4.53;0.85;;;38.90;21.00;;;;;;4374939;32;20065;-38
2021/05/10 06:12:51;;;;;;;3.00;0.57;;;39.00;20.80;;;;;;4375125;32;20082;-39
2021/05/10 06:15:19;;;;;;;4.10;0.70;;;39.00;20.30;;;;;;4373366;32;20072;-39
2021/05/10 06:17:46;;;;;;;1.23;0.60;;;39.00;20.50;;;;;;4374442;32;20592;-39
2021/05/10 06:20:13;;;;;;;2.30;0.70;;;39.00;20.60;;;;;;4375091;32;20093;-39
2021/05/10 06:22:40;;;;;;;1.20;0.50;;;39.10;20.50;;;;;;4373309;32;20070;-40
2021/05/10 06:25:12;;;;;;;1.48;0.55;;;39.20;20.30;;;;;;4374756;32;20084;-39
2021/05/10 06:27:38;;;;;;;2.47;0.50;;;39.20;20.30;;;;;;4373070;32;20086;-39
2021/05/10 06:30:07;;;;;;;2.05;0.60;;;39.20;20.30;;;;;;4374223;32;20533;-37
2021/05/10 06:32:34;;;;;;;4.18;0.85;;;39.30;20.30;;;;;;4374221;32;20163;-38
2021/05/10 06:35:00;;;;;;;2.15;0.55;;;39.30;20.50;;;;;;4373975;32;20107;-38
2021/05/10 06:37:30;;;;;;;4.03;0.60;;;39.30;20.70;;;;;;4371263;32;20074;-36
2021/05/10 06:39:59;;;;;;;1.35;0.60;;;39.40;20.10;;;;;;4371965;32;20089;-37
2021/05/10 06:42:26;;;;;;;7.10;0.60;;;39.60;20.40;;;;;;4326605;33;20094;-37
2021/05/10 06:44:53;;;;;;;1.70;0.55;;;39.80;20.10;;;;;;4327153;33;20078;-39
2021/05/10 06:47:20;;;;;;;1.17;0.50;;;40.00;20.10;;;;;;4327012;33;20518;-39
2021/05/10 06:49:47;;;;;;;1.20;0.55;;;40.10;19.70;;;;;;4327301;33;20118;-38
2021/05/10 06:52:13;;;;;;;1.52;0.50;;;40.10;20.10;;;;;;4326989;33;20078;-38
2021/05/10 06:54:39;;;;;;;1.98;0.57;;;40.30;19.90;;;;;;4315006;33;20109;-38
2021/05/10 06:57:06;;;;;;;5.05;0.65;;;40.40;19.60;;;;;;4326768;33;20079;-41
2021/05/10 06:59:33;;;;;;;3.33;0.47;;;40.60;19.80;;;;;;4326777;33;20088;-37
2021/05/10 07:01:59;;;;;;;0.75;0.45;;;40.90;19.90;;;;;;4326931;33;20074;-39
2021/05/10 07:04:26;;;;;;;1.20;0.47;;;41.00;19.40;;;;;;4326401;33;20086;-39
2021/05/10 07:06:52;;;;;;;6.10;0.57;;;41.00;19.80;;;;;;4326929;33;20790;-39
2021/05/10 07:09:19;;;;;;;5.78;0.50;;;41.10;19.80;;;;;;4352362;32;20078;-39
2021/05/10 07:11:45;;;;;;;4.22;0.52;;;41.10;20.10;;;;;;4356369;32;20066;-38
2021/05/10 07:14:12;;;;;;;3.10;0.80;;;41.10;19.50;;;;;;4370613;32;20066;-38
2021/05/10 07:16:38;;;;;;;6.82;0.60;;;41.00;19.40;;;;;;4373739;32;20097;-39
2021/05/10 07:19:05;;;;;;;15.75;1.17;;;40.90;19.40;;;;;;4371962;32;20178;-39
2021/05/10 07:21:31;;;;;;;2.03;0.35;;;40.80;19.70;;;;;;4373591;32;20151;-39
2021/05/10 07:23:58;;;;;;;4.45;1.20;;;40.70;19.60;;;;;;4360152;32;20066;-38
2021/05/10 07:26:24;;;;;;;2.85;0.55;;;40.70;19.80;;;;;;4372474;32;20081;-38
2021/05/10 07:28:51;;;;;;;5.37;0.60;;;40.80;19.50;;;;;;4373337;32;20057;-39
2021/05/10 07:31:18;;;;;;;1.52;0.40;;;40.70;19.80;;;;;;4373903;32;20061;-39
2021/05/10 07:33:44;;;;;;;4.40;0.70;;;40.60;19.50;;;;;;4373380;32;20059;-39
2021/05/10 07:36:11;;;;;;;9.98;0.60;;;40.50;19.70;;;;;;4371924;32;20062;-39
2021/05/10 07:38:37;;;;;;;3.35;0.52;;;40.50;20.00;;;;;;4373203;32;20042;-41
2021/05/10 07:41:04;;;;;;;2.95;0.43;;;40.50;19.60;;;;;;4373236;32;20058;-39
2021/05/10 07:43:31;;;;;;;1.00;0.43;;;40.50;19.80;;;;;;4371886;32;20598;-39
2021/05/10 07:45:57;;;;;;;5.93;1.15;;;40.50;19.60;;;;;;4373569;32;20081;-40
2021/05/10 07:48:23;;;;;;;0.70;0.50;;;40.50;19.60;;;;;;4387051;32;20057;-39
2021/05/10 07:50:52;;;;;;;4.45;0.55;;;40.50;19.80;;;;;;4386822;32;20089;-39
2021/05/10 07:53:19;;;;;;;2.42;0.43;;;40.30;19.60;;;;;;4385300;32;20069;-38
2021/05/10 07:55:46;;;;;;;2.65;0.70;;;40.10;19.70;;;;;;4385645;32;20099;-39
2021/05/10 07:58:12;;;;;;;2.15;0.35;;;39.90;19.80;;;;;;4385628;32;20093;-43
2021/05/10 08:00:42;;;;;;;6.72;0.62;;;39.90;19.70;;;;;;4385420;32;20127;-38
2021/05/10 08:03:11;;;;;;;6.32;0.50;;;39.90;19.50;;;;;;4385590;32;20157;-38
2021/05/10 08:05:40;;;;;;;9.30;2.65;;;39.80;19.60;;;;;;4385957;32;20525;-40
2021/05/10 08:08:07;;;;;;;5.87;0.65;;;39.90;19.90;;;;;;4385572;32;20149;-39
2021/05/10 08:10:33;;;;;;;2.75;0.88;;;39.90;19.50;;;;;;4385484;32;20576;-38
2021/05/10 08:13:00;;;;;;;6.72;0.47;;;40.10;19.60;;;;;;4385721;32;20069;-38
2021/05/10 08:15:27;;;;;;;1.92;0.47;;;40.30;19.60;;;;;;4385510;32;20069;-37
2021/05/10 08:17:53;;;;;;;4.22;0.55;;;40.40;19.20;;;;;;4372930;32;20086;-39
2021/05/10 08:20:19;;;;;;;5.45;0.73;;;40.50;19.10;;;;;;4385517;32;20069;-37
2021/05/10 08:22:46;;;;;;;6.18;0.50;;;40.50;19.20;;;;;;4385487;32;20050;-38
2021/05/10 08:25:12;;;;;;;7.40;0.55;;;40.50;19.30;;;;;;4385127;32;20084;-37
2021/05/10 08:27:40;;;;;;;5.82;0.70;;;40.50;19.40;;;;;;4385433;32;20099;-39
2021/05/10 08:30:13;;;;;;;5.90;0.40;;;40.50;19.40;;;;;;4385898;32;20065;-38
2021/05/10 08:32:40;;;;;;;1.45;0.60;;;40.50;19.10;;;;;;4386632;32;20092;-39
2021/05/10 08:35:07;;;;;;;2.60;0.40;;;40.50;19.10;;;;;;4387607;32;20062;-39
2021/05/10 08:37:33;;;;;;;4.75;0.80;;;40.50;19.30;;;;;;4387457;32;20473;-37
2021/05/10 08:40:00;;;;;;;3.15;0.50;;;40.40;19.20;;;;;;4388079;32;20154;-39
2021/05/10 08:42:27;;;;;;;7.03;1.23;;;40.40;19.20;;;;;;4387457;32;20183;-37
2021/05/10 08:44:54;;;;;;;5.53;0.80;;;40.30;19.40;;;;;;4386547;32;20224;-39
2021/05/10 08:47:21;;;;;;;6.60;0.50;;;40.30;19.10;;;;;;4378529;32;20058;-41
2021/05/10 08:49:48;;;;;;;7.45;0.60;;;40.10;19.00;;;;;;4372609;32;20531;-38
2021/05/10 08:52:15;;;;;;;5.75;0.55;;;40.10;19.00;;;;;;4371004;32;20089;-40
2021/05/10 08:54:42;;;;;;;4.87;0.50;;;40.10;18.80;;;;;;4372825;32;20066;-39
2021/05/10 08:57:08;;;;;;;3.22;0.50;;;40.30;18.70;;;;;;4372258;32;20567;-39
2021/05/10 08:59:35;;;;;;;7.70;0.70;;;40.60;18.80;;;;;;4372731;32;20058;-38
2021/05/10 09:02:03;;;;;;;2.28;0.50;;;40.70;18.60;;;;;;4372723;32;20141;-41
2021/05/10 09:04:36;;;;;;;6.60;0.70;;;40.80;18.80;;;;;;4373071;32;20151;-40
2021/05/10 09:07:19;;;;;;;3.78;0.50;;;40.90;18.90;;;;;;4372796;32;20335;-40
2021/05/10 09:10:11;;;;;;;4.85;0.70;;;40.90;18.70;;;;;;4354593;32;20063;-41
2021/05/10 09:12:52;;;;;;;5.87;0.82;;;41.00;18.80;;;;;;4343171;32;20091;-39
2021/05/10 09:15:24;;;;;;;10.55;0.73;;;41.00;19.20;;;;;;4355573;32;20477;-39
2021/05/10 09:18:02;;;;;;;2.28;0.60;;;41.00;19.00;;;;;;4354951;32;20486;-40
2021/05/10 09:20:41;;;;;;;8.30;0.60;;;40.90;18.80;;;;;;4355223;32;20227;-38
2021/05/10 09:23:13;;;;;;;5.97;0.65;;;40.80;19.00;;;;;;4355107;32;20191;-39
2021/05/10 09:25:44;;;;;;;4.18;0.57;;;40.70;19.30;;;;;;4354850;32;20523;-40
2021/05/10 09:28:22;;;;;;;7.90;0.90;;;40.70;19.40;;;;;;4344104;32;20070;-39
2021/05/10 09:30:53;;;;;;;7.85;0.65;;;40.70;19.10;;;;;;4357440;32;20070;-39
2021/05/10 09:33:23;;;;;;;5.62;0.60;;;40.70;19.10;;;;;;4357529;32;20082;-37
2021/05/10 09:35:57;;;;;;;3.78;0.50;;;40.70;18.70;;;;;;4357440;32;20090;-40
2021/05/10 09:38:29;;;;;;;4.53;0.60;;;40.70;18.90;;;;;;4345397;32;20165;-39
2021/05/10 09:40:58;;;;;;;4.87;0.50;;;40.70;19.00;;;;;;4357016;32;20082;-40
2021/05/10 09:43:42;;;;;;;5.28;0.60;;;40.70;18.50;;;;;;4357342;32;20074;-39
2021/05/10 09:46:11;;;;;;;4.37;0.55;;;40.70;18.60;;;;;;4357641;32;20074;-39
2021/05/10 09:48:40;;;;;;;5.75;0.50;;;40.70;18.50;;;;;;4372116;32;20073;-40
2021/05/10 09:51:14;;;;;;;9.43;0.70;;;40.60;18.60;;;;;;4372313;32;20573;-36
2021/05/10 09:53:47;;;;;;;5.28;0.50;;;40.60;18.50;;;;;;4360064;32;20195;-40
2021/05/10 09:56:32;;;;;;;5.80;0.60;;;40.60;18.80;;;;;;4372347;32;20062;-40
2021/05/10 09:59:04;;;;;;;11.75;1.02;;;40.70;18.90;;;;;;4372397;32;20064;-40
2021/05/10 10:01:48;;;;;;;5.65;1.30;;;40.80;18.90;;;;;;4371998;32;20074;-40
2021/05/10 10:04:18;;;;;;;4.07;0.60;;;40.90;18.90;;;;;;4359665;32;20062;-40
2021/05/10 10:06:48;;;;;;;3.70;0.80;;;40.90;18.70;;;;;;4372387;32;20134;-39
2021/05/10 10:09:15;;;;;;;1.70;0.50;;;40.90;18.70;;;;;;4379608;32;20502;-39
2021/05/10 10:11:42;;;;;;;1.80;0.55;;;40.70;18.60;;;;;;4387994;32;20104;-40
2021/05/10 10:14:10;;;;;;;5.55;0.50;;;40.50;18.60;;;;;;4389906;32;20070;-38
2021/05/10 10:16:36;;;;;;;2.42;0.40;;;40.30;18.70;;;;;;4389534;32;20058;-40
2021/05/10 10:19:05;;;;;;;3.08;0.60;;;40.20;18.80;;;;;;4375671;32;20529;-39
2021/05/10 10:21:31;;;;;;;7.00;0.60;;;40.20;19.10;;;;;;4388236;32;20057;-40
2021/05/10 10:24:03;;;;;;;1.20;0.40;;;40.10;19.20;;;;;;4375184;32;20082;-40
2021/05/10 10:26:30;;;;;;;4.85;0.55;;;40.00;19.20;;;;;;4389338;32;20085;-39
2021/05/10 10:28:57;;;;;;;2.87;0.60;;;39.90;19.10;;;;;;4389707;32;20064;-40
2021/05/10 10:31:28;;;;;;;5.15;0.70;;;39.90;18.80;;;;;;4387891;32;20505;-38
2021/05/10 10:34:06;;;;;;;5.35;1.05;;;40.00;18.90;;;;;;4389272;32;20050;-39
2021/05/10 10:36:35;;;;;;;3.60;0.52;;;40.20;19.00;;;;;;4387769;32;20065;-38
2021/05/10 10:39:30;;;;;;;3.62;0.70;;;40.50;18.80;;;;;;4387705;32;20049;-40
2021/05/10 10:42:28;;;;;;;4.90;0.77;;;40.70;18.60;;;;;;4389204;32;20062;-39
2021/05/10 10:44:59;;;;;;;4.85;0.50;;;41.00;18.50;;;;;;4386130;32;20088;-39
2021/05/10 10:47:45;;;;;;;2.72;0.60;;;41.20;18.60;;;;;;4381275;32;20066;-38
2021/05/10 10:50:19;;;;;;;3.65;0.55;;;41.10;18.70;;;;;;4374384;32;20058;-40
2021/05/10 10:52:50;;;;;;;3.12;0.60;;;40.90;18.30;;;;;;4374737;32;20086;-39
2021/05/10 10:55:22;;;;;;;4.03;0.70;;;40.70;18.60;;;;;;4374317;32;20147;-39
2021/05/10 10:57:50;;;;;;;2.20;0.70;;;40.50;18.50;;;;;;4373724;32;20565;-38
2021/05/10 11:00:18;;;;;;;2.20;0.70;;;40.50;18.30;;;;;;4373521;32;20514;-40
2021/05/10 11:02:54;;;;;;;4.30;0.80;;;40.50;18.30;;;;;;4374043;32;20174;-40
2021/05/10 11:05:22;;;;;;;3.42;0.80;;;40.60;18.60;;;;;;4374298;32;20130;-40
2021/05/10 11:08:08;;;;;;;12.60;2.45;;;40.70;18.40;;;;;;4373552;32;20073;-39
2021/05/10 11:10:51;;;;;;;5.07;0.80;;;40.70;18.60;;;;;;4372329;32;20137;-39
2021/05/10 11:13:30;;;;;;;5.67;0.87;;;40.70;18.60;;;;;;4373911;32;20054;-39
2021/05/10 11:16:03;;;;;;;9.00;2.20;;;40.70;18.60;;;;;;4373789;32;20074;-40
2021/05/10 11:18:51;;;;;;;8.45;0.90;;;40.60;18.30;;;;;;4373153;32;20099;-38
2021/05/10 11:21:26;;;;;;;5.00;1.30;;;40.60;18.20;;;;;;4373484;32;20150;-40
2021/05/10 11:24:00;;;;;;;3.87;0.95;;;40.50;18.10;;;;;;4374072;32;20073;-39
2021/05/10 11:26:51;;;;;;;3.33;0.80;;;40.40;18.40;;;;;;4373287;32;20178;-39
2021/05/10 11:29:27;;;;;;;5.78;1.50;;;40.40;18.40;;;;;;4373246;32;20068;-40
2021/05/10 11:31:57;;;;;;;7.45;1.10;;;40.30;18.50;;;;;;4373409;32;20649;-38
2021/05/10 11:34:38;;;;;;;8.38;1.40;;;40.30;18.30;;;;;;4373202;32;20170;-39
2021/05/10 11:37:05;;;;;;;2.17;0.93;;;40.30;18.30;;;;;;4373367;32;20137;-40
2021/05/10 11:39:34;;;;;;;6.57;1.27;;;40.40;18.30;;;;;;4372928;32;20523;-38
2021/05/10 11:42:02;;;;;;;3.75;0.90;;;40.50;18.50;;;;;;4373130;32;20090;-40
2021/05/10 11:44:37;;;;;;;5.30;1.12;;;40.60;18.30;;;;;;4373008;32;20546;-40
2021/05/10 11:47:09;;;;;;;2.15;1.00;;;40.60;18.20;;;;;;4372032;32;20093;-39
2021/05/10 11:49:42;;;;;;;7.25;1.12;;;40.60;18.30;;;;;;4373097;32;20076;-39
2021/05/10 11:52:15;;;;;;;7.72;1.00;;;40.30;18.40;;;;;;4373536;32;20503;-37
2021/05/10 11:54:53;;;;;;;12.65;1.52;;;40.10;18.90;;;;;;4371965;32;20098;-38
2021/05/10 11:57:42;;;;;;;6.05;1.10;;;40.10;18.90;;;;;;4373244;32;20058;-39
2021/05/10 12:00:13;;;;;;;8.98;0.98;;;40.00;18.50;;;;;;4372930;32;20076;-39
2021/05/10 12:02:47;;;;;;;2.65;0.85;;;40.00;18.60;;;;;;4373163;32;20058;-39
2021/05/10 12:05:13;;;;;;;;;;;40.10;18.60;;;;;;4374079;32;20105;-40
2021/05/10 12:07:40;;;;;;;4.22;0.85;;;40.20;18.60;;;;;;4373068;32;19969;-38
2021/05/10 12:10:08;;;;;;;4.95;0.80;;;40.30;18.40;;;;;;4373039;32;20109;-39
2021/05/10 12:12:40;;;;;;;2.30;0.98;;;40.30;18.80;;;;;;4339997;33;20104;-38
2021/05/10 12:15:14;;;;;;;2.50;0.60;;;40.20;18.60;;;;;;4340349;33;20086;-39
2021/05/10 12:17:51;;;;;;;11.65;1.02;;;40.20;18.30;;;;;;4340582;33;20081;-40
2021/05/10 12:20:30;;;;;;;4.25;0.80;;;40.20;18.30;;;;;;4340289;33;20145;-39
2021/05/10 12:22:58;;;;;;;0.77;0.60;;;40.20;18.40;;;;;;4340769;33;20155;-39
2021/05/10 12:25:45;;;;;;;3.37;0.70;;;40.10;18.60;;;;;;4340162;33;20547;-40
2021/05/10 12:28:13;;;;;;;5.18;1.08;;;40.00;18.80;;;;;;4328302;33;20075;-40
2021/05/10 12:30:46;;;;;;;1.08;0.50;;;39.80;18.50;;;;;;4328108;33;20094;-40
2021/05/10 12:33:19;;;;;;;5.95;0.93;;;39.80;18.70;;;;;;4325174;33;20075;-39
2021/05/10 12:35:48;;;;;;;;;;;39.70;18.80;;;;;;4326017;33;20055;-37
2021/05/10 12:38:42;;;;;;;2.17;0.73;;;39.70;19.00;;;;;;4325691;33;20410;-40
2021/05/10 12:41:20;;;;;;;3.20;1.70;;;39.80;18.80;;;;;;4325797;33;20071;-39
2021/05/10 12:43:50;;;;;;;2.53;1.40;;;39.80;19.10;;;;;;4330414;32;20110;-37
2021/05/10 12:46:17;;;;;;;3.58;1.20;;;39.80;18.60;;;;;;4356328;32;20072;-35
2021/05/10 12:48:46;;;;;;;3.15;1.17;;;39.80;18.70;;;;;;4369960;32;20079;-40
2021/05/10 12:51:15;;;;;;;5.30;2.15;;;39.80;18.50;;;;;;4357937;32;20077;-40
2021/05/10 12:53:47;;;;;;;3.67;1.55;;;39.80;18.20;;;;;;4370365;32;20160;-39
2021/05/10 12:56:15;;;;;;;4.80;1.60;;;39.70;18.20;;;;;;4370599;32;20067;-39
2021/05/10 12:58:48;;;;;;;5.40;1.60;;;39.80;18.10;;;;;;4357584;32;20080;-39
2021/05/10 13:01:25;;;;;;;3.87;1.92;;;39.80;18.10;;;;;;4370761;32;20556;-40
2021/05/10 13:04:03;;;;;;;1.92;1.55;;;39.80;18.00;;;;;;4373591;32;20126;-40
2021/05/10 13:06:32;;;;;;;3.03;2.00;;;39.90;18.20;;;;;;4375732;32;20117;-39
2021/05/10 13:08:59;;;;;;;2.33;1.92;;;39.80;18.00;;;;;;4374032;32;20093;-39
2021/05/10 13:11:45;;;;;;;6.90;3.10;;;39.80;18.00;;;;;;4375361;32;20066;-38